DFEIC EKRK-EKOD
Flight info
| Callsign | DFEIC |
|---|---|
| Flight time | 0h 35m |
| Altitude | 8000 |
| Route | KOR |
| Aircraft | C208/L-SDFGR/C |
Departure
| Time | 2026-05-09 11:59 |
|---|---|
| Airport | Copenhagen Roskilde Airport (EKRK) |
Arrival
| Time | 2026-05-09 12:34 |
|---|---|
| Airport | Odense Hans Christian Andersen Airport (EKOD) |
| Time | Latitude | Longitude | Altitude | Speed | Heading |
|---|---|---|---|---|---|
| 2026-05-09 11:46 | 55.59001 | 12.12868 | 141 ft | 0 kts | 117° |
| 2026-05-09 11:54 | 55.58997 | 12.12875 | 141 ft | 7 kts | 154° |
| 2026-05-09 11:54 | 55.58923 | 12.13001 | 141 ft | 15 kts | 116° |
| 2026-05-09 11:55 | 55.58916 | 12.13025 | 141 ft | 0 kts | 118° |
| 2026-05-09 11:56 | 55.58979 | 12.12266 | 141 ft | 26 kts | 296° |
| 2026-05-09 11:56 | 55.59064 | 12.11956 | 141 ft | 25 kts | 297° |
| 2026-05-09 11:56 | 55.59129 | 12.11738 | 141 ft | 17 kts | 285° |
| 2026-05-09 11:57 | 55.59079 | 12.11653 | 141 ft | 0 kts | 207° |
| 2026-05-09 11:58 | 55.59047 | 12.11624 | 141 ft | 13 kts | 204° |
| 2026-05-09 11:58 | 55.58978 | 12.11627 | 142 ft | 8 kts | 134° |
| 2026-05-09 11:58 | 55.58972 | 12.11641 | 142 ft | 6 kts | 118° |
| 2026-05-09 11:58 | 55.58780 | 12.12338 | 243 ft | 98 kts | 118° |
| 2026-05-09 11:59 | 55.58490 | 12.13517 | 711 ft | 108 kts | 111° |
| 2026-05-09 11:59 | 55.58270 | 12.14831 | 1141 ft | 114 kts | 109° |
| 2026-05-09 11:59 | 55.58037 | 12.16205 | 1534 ft | 120 kts | 108° |
| 2026-05-09 11:59 | 55.57803 | 12.17645 | 1939 ft | 125 kts | 108° |
| 2026-05-09 12:00 | 55.57551 | 12.19166 | 2306 ft | 134 kts | 108° |
| 2026-05-09 12:00 | 55.57290 | 12.20769 | 2669 ft | 134 kts | 110° |
| 2026-05-09 12:00 | 55.56761 | 12.22079 | 3065 ft | 139 kts | 149° |
| 2026-05-09 12:00 | 55.55809 | 12.22179 | 3388 ft | 143 kts | 200° |
| 2026-05-09 12:01 | 55.54987 | 12.21210 | 3814 ft | 146 kts | 228° |
| 2026-05-09 12:01 | 55.54618 | 12.19507 | 4232 ft | 151 kts | 251° |
| 2026-05-09 12:01 | 55.54336 | 12.17727 | 4652 ft | 150 kts | 249° |
| 2026-05-09 12:01 | 55.54014 | 12.15982 | 5068 ft | 148 kts | 250° |
| 2026-05-09 12:02 | 55.53696 | 12.14258 | 5482 ft | 147 kts | 249° |
| 2026-05-09 12:02 | 55.53381 | 12.12541 | 5877 ft | 146 kts | 248° |
| 2026-05-09 12:02 | 55.53054 | 12.10830 | 6296 ft | 147 kts | 248° |
| 2026-05-09 12:02 | 55.52730 | 12.09114 | 6707 ft | 148 kts | 248° |
| 2026-05-09 12:03 | 55.52399 | 12.07403 | 7102 ft | 147 kts | 248° |
| 2026-05-09 12:03 | 55.52065 | 12.05634 | 7349 ft | 155 kts | 248° |
| 2026-05-09 12:03 | 55.51716 | 12.03804 | 7600 ft | 159 kts | 249° |
| 2026-05-09 12:03 | 55.51364 | 12.01943 | 7853 ft | 160 kts | 249° |
| 2026-05-09 12:04 | 55.51001 | 12.00039 | 7971 ft | 170 kts | 249° |
| 2026-05-09 12:04 | 55.50612 | 11.97991 | 7972 ft | 179 kts | 248° |
| 2026-05-09 12:04 | 55.50215 | 11.95898 | 7971 ft | 180 kts | 248° |
| 2026-05-09 12:04 | 55.49816 | 11.93805 | 7970 ft | 180 kts | 249° |
| 2026-05-09 12:05 | 55.49417 | 11.91714 | 8020 ft | 176 kts | 249° |
| 2026-05-09 12:05 | 55.49029 | 11.89674 | 8151 ft | 176 kts | 247° |
| 2026-05-09 12:05 | 55.48634 | 11.87618 | 8246 ft | 181 kts | 247° |
| 2026-05-09 12:05 | 55.48233 | 11.85511 | 8241 ft | 181 kts | 248° |
| 2026-05-09 12:06 | 55.47835 | 11.83418 | 8245 ft | 179 kts | 248° |
| 2026-05-09 12:06 | 55.47436 | 11.81345 | 8242 ft | 178 kts | 248° |
| 2026-05-09 12:06 | 55.47039 | 11.79272 | 8241 ft | 179 kts | 248° |
| 2026-05-09 12:06 | 55.46646 | 11.77232 | 8245 ft | 178 kts | 248° |
| 2026-05-09 12:07 | 55.46247 | 11.75160 | 8246 ft | 179 kts | 249° |
| 2026-05-09 12:07 | 55.45848 | 11.73091 | 8255 ft | 178 kts | 249° |
| 2026-05-09 12:07 | 55.45448 | 11.71022 | 8253 ft | 178 kts | 249° |
| 2026-05-09 12:07 | 55.45049 | 11.68955 | 8254 ft | 178 kts | 249° |
| 2026-05-09 12:08 | 55.44648 | 11.66887 | 8245 ft | 179 kts | 249° |
| 2026-05-09 12:08 | 55.44249 | 11.64823 | 8250 ft | 178 kts | 249° |
| 2026-05-09 12:08 | 55.43849 | 11.62759 | 8245 ft | 178 kts | 249° |
| 2026-05-09 12:08 | 55.43461 | 11.60687 | 8240 ft | 178 kts | 248° |
| 2026-05-09 12:09 | 55.43051 | 11.58627 | 8239 ft | 179 kts | 248° |
| 2026-05-09 12:09 | 55.42639 | 11.56568 | 8244 ft | 178 kts | 248° |
| 2026-05-09 12:09 | 55.42229 | 11.54511 | 8239 ft | 178 kts | 248° |
| 2026-05-09 12:10 | 55.41003 | 11.48337 | 8239 ft | 178 kts | 252° |
| 2026-05-09 12:10 | 55.40846 | 11.46158 | 8257 ft | 180 kts | 264° |
| 2026-05-09 12:10 | 55.40757 | 11.43948 | 8249 ft | 182 kts | 263° |
| 2026-05-09 12:11 | 55.40628 | 11.41744 | 8245 ft | 180 kts | 261° |
| 2026-05-09 12:11 | 55.40482 | 11.39554 | 8245 ft | 180 kts | 261° |
| 2026-05-09 12:11 | 55.40334 | 11.37364 | 8248 ft | 181 kts | 261° |
| 2026-05-09 12:11 | 55.40189 | 11.35171 | 8250 ft | 180 kts | 261° |
| 2026-05-09 12:12 | 55.40044 | 11.32976 | 8251 ft | 181 kts | 261° |
| 2026-05-09 12:12 | 55.39898 | 11.30785 | 8244 ft | 181 kts | 261° |
| 2026-05-09 12:12 | 55.39752 | 11.28589 | 8252 ft | 181 kts | 261° |
| 2026-05-09 12:12 | 55.39604 | 11.26384 | 8249 ft | 182 kts | 261° |
| 2026-05-09 12:13 | 55.39457 | 11.24182 | 8245 ft | 181 kts | 261° |
| 2026-05-09 12:13 | 55.39310 | 11.21983 | 8245 ft | 180 kts | 261° |
| 2026-05-09 12:13 | 55.39161 | 11.19794 | 8243 ft | 180 kts | 261° |
| 2026-05-09 12:13 | 55.39014 | 11.17612 | 8246 ft | 180 kts | 261° |
| 2026-05-09 12:14 | 55.38866 | 11.15430 | 8248 ft | 180 kts | 261° |
| 2026-05-09 12:14 | 55.38718 | 11.13251 | 8252 ft | 179 kts | 261° |
| 2026-05-09 12:14 | 55.38570 | 11.11075 | 8249 ft | 179 kts | 261° |
| 2026-05-09 12:14 | 55.38421 | 11.08909 | 8249 ft | 178 kts | 261° |
| 2026-05-09 12:15 | 55.38274 | 11.06746 | 8135 ft | 179 kts | 261° |
| 2026-05-09 12:15 | 55.38125 | 11.04571 | 7932 ft | 179 kts | 261° |
| 2026-05-09 12:15 | 55.37976 | 11.02396 | 7730 ft | 179 kts | 261° |
| 2026-05-09 12:15 | 55.37825 | 11.00222 | 7531 ft | 179 kts | 261° |
| 2026-05-09 12:16 | 55.37675 | 10.98051 | 7332 ft | 179 kts | 261° |
| 2026-05-09 12:16 | 55.37524 | 10.95877 | 7134 ft | 179 kts | 261° |
| 2026-05-09 12:16 | 55.37373 | 10.93706 | 6938 ft | 179 kts | 261° |
| 2026-05-09 12:16 | 55.37222 | 10.91535 | 6743 ft | 179 kts | 261° |
| 2026-05-09 12:17 | 55.37070 | 10.89370 | 6541 ft | 179 kts | 261° |
| 2026-05-09 12:17 | 55.36918 | 10.87193 | 6329 ft | 179 kts | 261° |
| 2026-05-09 12:17 | 55.36764 | 10.85022 | 6120 ft | 179 kts | 261° |
| 2026-05-09 12:17 | 55.36611 | 10.82849 | 5913 ft | 179 kts | 260° |
| 2026-05-09 12:18 | 55.36457 | 10.80677 | 5708 ft | 179 kts | 261° |
| 2026-05-09 12:18 | 55.36304 | 10.78511 | 5508 ft | 179 kts | 260° |
| 2026-05-09 12:18 | 55.36148 | 10.76336 | 5302 ft | 179 kts | 261° |
| 2026-05-09 12:18 | 55.35994 | 10.74160 | 5099 ft | 180 kts | 261° |
| 2026-05-09 12:19 | 55.35840 | 10.71992 | 4999 ft | 175 kts | 260° |
| 2026-05-09 12:19 | 55.35691 | 10.69907 | 4998 ft | 170 kts | 260° |
| 2026-05-09 12:19 | 55.35542 | 10.67864 | 4994 ft | 166 kts | 260° |
| 2026-05-09 12:19 | 55.35396 | 10.65839 | 4907 ft | 170 kts | 260° |
| 2026-05-09 12:20 | 55.35246 | 10.63762 | 4699 ft | 172 kts | 260° |
| 2026-05-09 12:20 | 55.35088 | 10.61674 | 4483 ft | 173 kts | 260° |
| 2026-05-09 12:20 | 55.34933 | 10.59565 | 4283 ft | 174 kts | 260° |
| 2026-05-09 12:20 | 55.34780 | 10.57457 | 4078 ft | 174 kts | 260° |
| 2026-05-09 12:21 | 55.34630 | 10.55375 | 3875 ft | 173 kts | 260° |
| 2026-05-09 12:21 | 55.34474 | 10.53234 | 3671 ft | 176 kts | 259° |
| 2026-05-09 12:21 | 55.34319 | 10.51118 | 3460 ft | 174 kts | 259° |
| 2026-05-09 12:21 | 55.34171 | 10.49091 | 3242 ft | 170 kts | 260° |
| 2026-05-09 12:22 | 55.34021 | 10.46990 | 2910 ft | 168 kts | 260° |
| 2026-05-09 12:22 | 55.33885 | 10.45087 | 2589 ft | 150 kts | 261° |
| 2026-05-09 12:22 | 55.33756 | 10.43313 | 2385 ft | 154 kts | 260° |
| 2026-05-09 12:22 | 55.33600 | 10.41371 | 2206 ft | 161 kts | 261° |
| 2026-05-09 12:23 | 55.33460 | 10.39402 | 2194 ft | 165 kts | 260° |
| 2026-05-09 12:23 | 55.33316 | 10.37460 | 2206 ft | 157 kts | 260° |
| 2026-05-09 12:23 | 55.33174 | 10.35578 | 2173 ft | 157 kts | 260° |
| 2026-05-09 12:23 | 55.33033 | 10.33692 | 2204 ft | 153 kts | 260° |
| 2026-05-09 12:24 | 55.32896 | 10.31825 | 2200 ft | 152 kts | 261° |
| 2026-05-09 12:24 | 55.32765 | 10.29973 | 2176 ft | 152 kts | 261° |
| 2026-05-09 12:24 | 55.32616 | 10.28142 | 2201 ft | 153 kts | 262° |
| 2026-05-09 12:24 | 55.32485 | 10.26299 | 2193 ft | 151 kts | 262° |
| 2026-05-09 12:25 | 55.32340 | 10.24460 | 2184 ft | 153 kts | 259° |
| 2026-05-09 12:25 | 55.32199 | 10.22602 | 2182 ft | 154 kts | 262° |
| 2026-05-09 12:25 | 55.32058 | 10.20762 | 2187 ft | 153 kts | 261° |
| 2026-05-09 12:25 | 55.31919 | 10.18871 | 2190 ft | 159 kts | 259° |
| 2026-05-09 12:26 | 55.31769 | 10.16947 | 2180 ft | 158 kts | 262° |
| 2026-05-09 12:26 | 55.31718 | 10.15062 | 2212 ft | 152 kts | 281° |
| 2026-05-09 12:26 | 55.32108 | 10.13345 | 2181 ft | 151 kts | 306° |
| 2026-05-09 12:26 | 55.32866 | 10.12145 | 2230 ft | 144 kts | 333° |
| 2026-05-09 12:27 | 55.33736 | 10.11252 | 2204 ft | 152 kts | 333° |
| 2026-05-09 12:27 | 55.34678 | 10.10281 | 2087 ft | 160 kts | 332° |
| 2026-05-09 12:27 | 55.35645 | 10.09279 | 1986 ft | 159 kts | 333° |
| 2026-05-09 12:27 | 55.36583 | 10.08309 | 1982 ft | 155 kts | 333° |
| 2026-05-09 12:28 | 55.37554 | 10.07619 | 1995 ft | 149 kts | 355° |
| 2026-05-09 12:28 | 55.38573 | 10.07751 | 2003 ft | 146 kts | 20° |
| 2026-05-09 12:28 | 55.39438 | 10.08631 | 1994 ft | 142 kts | 46° |
| 2026-05-09 12:28 | 55.40006 | 10.10027 | 1991 ft | 140 kts | 64° |
| 2026-05-09 12:29 | 55.40499 | 10.11511 | 1993 ft | 141 kts | 63° |
| 2026-05-09 12:29 | 55.40993 | 10.12991 | 1988 ft | 139 kts | 63° |
| 2026-05-09 12:29 | 55.41485 | 10.14462 | 1991 ft | 140 kts | 63° |
| 2026-05-09 12:29 | 55.41978 | 10.15942 | 1993 ft | 141 kts | 62° |
| 2026-05-09 12:30 | 55.42471 | 10.17428 | 1896 ft | 139 kts | 63° |
| 2026-05-09 12:30 | 55.42918 | 10.18780 | 1707 ft | 119 kts | 64° |
| 2026-05-09 12:30 | 55.43688 | 10.21089 | 1400 ft | 101 kts | 64° |
| 2026-05-09 12:31 | 55.44031 | 10.22114 | 1290 ft | 91 kts | 63° |
| 2026-05-09 12:31 | 55.44626 | 10.23883 | 1058 ft | 80 kts | 64° |
| 2026-05-09 12:31 | 55.44911 | 10.24723 | 944 ft | 79 kts | 62° |
| 2026-05-09 12:32 | 55.45188 | 10.25579 | 798 ft | 81 kts | 66° |
| 2026-05-09 12:32 | 55.45460 | 10.26421 | 705 ft | 78 kts | 61° |
| 2026-05-09 12:32 | 55.45750 | 10.27236 | 602 ft | 79 kts | 62° |
| 2026-05-09 12:32 | 55.46020 | 10.28088 | 503 ft | 82 kts | 60° |
| 2026-05-09 12:33 | 55.46304 | 10.28947 | 394 ft | 80 kts | 62° |
| 2026-05-09 12:33 | 55.46574 | 10.29768 | 294 ft | 78 kts | 63° |
| 2026-05-09 12:33 | 55.46856 | 10.30636 | 210 ft | 84 kts | 61° |
| 2026-05-09 12:33 | 55.47126 | 10.31459 | 87 ft | 73 kts | 62° |
| 2026-05-09 12:34 | 55.47362 | 10.32177 | 59 ft | 60 kts | 62° |
| 2026-05-09 12:34 | 55.47485 | 10.32538 | 62 ft | 18 kts | 68° |
| 2026-05-09 12:34 | 55.47431 | 10.32641 | 65 ft | 9 kts | 133° |
| 2026-05-09 12:34 | 55.47420 | 10.32663 | 66 ft | 4 kts | 130° |
| 2026-05-09 12:35 | 55.47385 | 10.32723 | 65 ft | 10 kts | 140° |
| 2026-05-09 12:35 | 55.47319 | 10.32805 | 60 ft | 13 kts | 204° |
| 2026-05-09 12:35 | 55.47272 | 10.32773 | 62 ft | 14 kts | 128° |
| 2026-05-09 12:35 | 55.47281 | 10.32804 | 60 ft | 0 kts | 336° |